Bow Island, Canada
Current Conditions -  °F | °C
As of 1:00 PM on Wednesday 26 Nov 2014 (Local Time) from CYXH Reporting Station
Overcast Overcast  
Wind Chill: 22°   Ceiling: 26000
Heat Index: 28°   Visibility: 30mi
Dew Point: 23°   Wind: 6mph
Humidity: 80%   Direction: 100°E
Pressure: 30.19"   Gusts: NA
Location:  49.87°N, 111.36°W
Report Text: CYXH 262000Z 10005KT 30SM FEW060 SCT080 OVC260 M02/M05 A3019 RMK SC2AC2CI4 SLP257
Loading
Personal Weather Stations






























Interactive Weather Map New forecast layout! Learn more

10-Day Weather Forecast

Advertisements
Track Severe Weather on mobile